Time,TemperatureF,DewpointF,PressureIn,WindDirection,WindDirectionDegrees,WindSpeedMPH,WindSpeedGustMPH,Humidity,HourlyPrecipIn,Conditions,Clouds,dailyrainin,SoftwareType,DateUTC
2013-01-24 00:10:00,74.0,67.4,30.21,East,90,12.0,20.0,80,0.00,,,-99.99,Weather View 32 v70,2013-01-24 05:10:00,
2013-01-24 00:40:00,74.0,66.7,30.19,East,90,18.0,20.0,78,0.00,,,-99.99,Weather View 32 v70,2013-01-24 05:40:00,
2013-01-24 01:00:00,74.0,67.4,30.19,East,90,20.0,21.0,80,0.00,,,-99.99,Weather View 32 v70,2013-01-24 06:00:00,
2013-01-24 01:10:00,74.0,68.1,30.19,East,90,11.0,21.0,82,0.00,,,-99.99,Weather View 32 v70,2013-01-24 06:10:00,
2013-01-24 01:20:00,74.0,68.1,30.18,East,90,15.0,21.0,82,0.00,,,-99.99,Weather View 32 v70,2013-01-24 06:20:00,
2013-01-24 01:30:00,74.0,68.8,30.18,East,90,13.0,21.0,84,0.00,,,-99.99,Weather View 32 v70,2013-01-24 06:30:00,
2013-01-24 01:40:00,74.0,69.2,30.18,East,90,17.0,21.0,85,0.00,,,-99.99,Weather View 32 v70,2013-01-24 06:40:00,
2013-01-24 01:50:00,74.0,69.2,30.18,East,90,14.0,23.0,85,0.00,,,-99.99,Weather View 32 v70,2013-01-24 06:50:00,
2013-01-24 02:00:00,74.0,69.5,30.18,East,90,17.0,23.0,86,0.00,,,-99.99,Weather View 32 v70,2013-01-24 07:00:00,
2013-01-24 02:10:00,74.0,69.5,30.17,East,90,19.0,23.0,86,0.00,,,-99.99,Weather View 32 v70,2013-01-24 07:10:00,
2013-01-24 02:20:00,74.0,69.5,30.18,ENE,67,17.0,23.0,86,0.00,,,-99.99,Weather View 32 v70,2013-01-24 07:20:00,
2013-01-24 02:30:00,74.0,70.2,30.17,East,90,15.0,23.0,88,0.00,,,-99.99,Weather View 32 v70,2013-01-24 07:30:00,
2013-01-24 02:40:00,74.0,69.9,30.17,East,90,16.0,23.0,87,0.00,,,-99.99,Weather View 32 v70,2013-01-24 07:40:00,
2013-01-24 02:50:00,74.0,70.5,30.17,East,90,15.0,23.0,89,0.00,,,-99.99,Weather View 32 v70,2013-01-24 07:50:00,
2013-01-24 03:00:00,74.0,70.9,30.17,East,90,12.0,22.0,90,0.00,,,-99.99,Weather View 32 v70,2013-01-24 08:00:00,
2013-01-24 03:30:00,73.0,70.5,30.18,East,90,13.0,23.0,92,0.00,,,-99.99,Weather View 32 v70,2013-01-24 08:30:00,
2013-01-24 03:50:00,73.0,70.5,30.18,East,90,20.0,23.0,92,0.00,,,-99.99,Weather View 32 v70,2013-01-24 08:50:00,
2013-01-24 04:40:00,74.0,70.5,30.18,East,90,6.0,20.0,89,0.00,,,-99.99,Weather View 32 v70,2013-01-24 09:40:00,
2013-01-24 04:50:00,73.0,70.2,30.19,ESE,112,7.0,20.0,91,0.00,,,-99.99,Weather View 32 v70,2013-01-24 09:50:00,
2013-01-24 05:10:00,73.0,70.5,30.19,ESE,112,7.0,19.0,92,0.00,,,-99.99,Weather View 32 v70,2013-01-24 10:10:00,
2013-01-24 05:20:00,73.0,71.2,30.19,ENE,67,8.0,17.0,94,0.00,,,-99.99,Weather View 32 v70,2013-01-24 10:20:00,
2013-01-24 05:40:00,73.0,70.5,30.19,East,90,9.0,17.0,92,0.00,,,-99.99,Weather View 32 v70,2013-01-24 10:40:00,
2013-01-24 05:50:00,72.0,71.1,30.19,ESE,112,15.0,22.0,97,0.01,,,-99.99,Weather View 32 v70,2013-01-24 10:50:00,
2013-01-24 06:00:00,71.0,69.5,30.21,ESE,112,9.0,23.0,95,0.01,,,-99.99,Weather View 32 v70,2013-01-24 11:00:00,
2013-01-24 06:30:00,73.0,71.2,30.21,ESE,112,6.0,23.0,94,0.01,,,-99.99,Weather View 32 v70,2013-01-24 11:30:00,
2013-01-24 06:50:00,73.0,69.9,30.22,ESE,112,6.0,23.0,90,0.00,,,-99.99,Weather View 32 v70,2013-01-24 11:50:00,
2013-01-24 07:00:00,73.0,70.2,30.22,ESE,112,10.0,19.0,91,0.00,,,-99.99,Weather View 32 v70,2013-01-24 12:00:00,
2013-01-24 07:40:00,75.0,71.5,30.22,ESE,112,9.0,16.0,89,0.00,,,-99.99,Weather View 32 v70,2013-01-24 12:40:00,
2013-01-24 07:50:00,75.0,71.2,30.22,ESE,112,1.0,16.0,88,0.00,,,-99.99,Weather View 32 v70,2013-01-24 12:50:00,
2013-01-24 08:20:00,75.0,70.8,30.22,ESE,112,6.0,13.0,87,0.00,,,-99.99,Weather View 32 v70,2013-01-24 13:20:00,
2013-01-24 08:30:00,75.0,71.2,30.23,ESE,112,2.0,13.0,88,0.00,,,-99.99,Weather View 32 v70,2013-01-24 13:30:00,
2013-01-24 08:50:00,73.0,71.8,30.23,ESE,112,7.0,21.0,96,0.04,,,-99.99,Weather View 32 v70,2013-01-24 13:50:00,
2013-01-24 09:30:00,75.0,72.5,30.20,ESE,112,8.0,21.0,92,0.04,,,-99.99,Weather View 32 v70,2013-01-24 14:30:00,
2013-01-24 09:40:00,75.0,72.5,30.20,East,90,6.0,19.0,92,0.04,,,-99.99,Weather View 32 v70,2013-01-24 14:40:00,
2013-01-24 10:00:00,76.0,72.5,30.18,ESE,112,7.0,19.0,89,0.00,,,-99.99,Weather View 32 v70,2013-01-24 15:00:00,
2013-01-24 10:10:00,76.0,72.2,30.18,ESE,112,4.0,19.0,88,0.00,,,-99.99,Weather View 32 v70,2013-01-24 15:10:00,
2013-01-24 10:30:00,77.0,72.8,30.16,ESE,112,9.0,19.0,87,0.00,,,-99.99,Weather View 32 v70,2013-01-24 15:30:00,
2013-01-24 10:40:00,77.0,72.8,30.16,ESE,112,8.0,18.0,87,0.00,,,-99.99,Weather View 32 v70,2013-01-24 15:40:00,
2013-01-24 10:50:00,77.0,72.5,30.15,ESE,112,6.0,18.0,86,0.00,,,-99.99,Weather View 32 v70,2013-01-24 15:50:00,
2013-01-24 11:20:00,77.0,71.4,30.14,ESE,112,10.0,18.0,83,0.00,,,-99.99,Weather View 32 v70,2013-01-24 16:20:00,
2013-01-24 12:20:00,76.0,72.2,30.13,ESE,112,8.0,17.0,88,0.00,,,-99.99,Weather View 32 v70,2013-01-24 17:20:00,
2013-01-24 12:40:00,76.0,71.8,30.12,ESE,112,7.0,17.0,87,0.00,,,-99.99,Weather View 32 v70,2013-01-24 17:40:00,
2013-01-24 13:00:00,77.0,72.5,30.11,ESE,112,5.0,15.0,86,0.00,,,-99.99,Weather View 32 v70,2013-01-24 18:00:00,
2013-01-24 13:20:00,76.0,69.7,30.11,ESE,112,11.0,15.0,81,0.00,,,-99.99,Weather View 32 v70,2013-01-24 18:20:00,
2013-01-24 13:30:00,77.0,71.4,30.10,ESE,112,8.0,15.0,83,0.00,,,-99.99,Weather View 32 v70,2013-01-24 18:30:00,
2013-01-24 13:50:00,77.0,70.7,30.10,ESE,112,6.0,15.0,81,0.00,,,-99.99,Weather View 32 v70,2013-01-24 18:50:00,
2013-01-24 14:00:00,77.0,70.3,30.10,ESE,112,11.0,16.0,80,0.00,,,-99.99,Weather View 32 v70,2013-01-24 19:00:00,
2013-01-24 14:10:00,77.0,70.7,30.10,ESE,112,6.0,16.0,81,0.00,,,-99.99,Weather View 32 v70,2013-01-24 19:10:00,
2013-01-24 14:40:00,76.0,70.4,30.10,ESE,112,13.0,17.0,83,0.00,,,-99.99,Weather View 32 v70,2013-01-24 19:40:00,
2013-01-24 15:00:00,77.0,71.4,30.10,ESE,112,3.0,17.0,83,0.00,,,-99.99,Weather View 32 v70,2013-01-24 20:00:00,
2013-01-24 15:50:00,76.0,70.8,30.11,ESE,112,6.0,16.0,84,0.00,,,-99.99,Weather View 32 v70,2013-01-24 20:50:00,
2013-01-24 16:10:00,76.0,71.1,30.11,ESE,112,5.0,16.0,85,0.00,,,-99.99,Weather View 32 v70,2013-01-24 21:10:00,
2013-01-24 16:50:00,76.0,71.1,30.10,ESE,112,12.0,20.0,85,0.00,,,-99.99,Weather View 32 v70,2013-01-24 21:50:00,
2013-01-24 17:20:00,75.0,70.5,30.12,ESE,112,10.0,22.0,86,0.00,,,-99.99,Weather View 32 v70,2013-01-24 22:20:00,
2013-01-24 17:30:00,75.0,70.8,30.12,ESE,112,12.0,22.0,87,0.00,,,-99.99,Weather View 32 v70,2013-01-24 22:30:00,
2013-01-24 17:50:00,75.0,70.8,30.12,ESE,112,13.0,22.0,87,0.00,,,-99.99,Weather View 32 v70,2013-01-24 22:50:00,
2013-01-24 18:20:00,75.0,70.8,30.12,ESE,112,13.0,23.0,87,0.00,,,-99.99,Weather View 32 v70,2013-01-24 23:20:00,
2013-01-24 18:30:00,75.0,71.2,30.13,ESE,112,10.0,23.0,88,0.00,,,-99.99,Weather View 32 v70,2013-01-24 23:30:00,
2013-01-24 18:40:00,75.0,70.8,30.14,ESE,112,15.0,23.0,87,0.00,,,-99.99,Weather View 32 v70,2013-01-24 23:40:00,
2013-01-24 20:10:00,75.0,71.5,30.16,ESE,112,9.0,18.0,89,0.00,,,-99.99,Weather View 32 v70,2013-01-25 01:10:00,
2013-01-24 20:50:00,74.0,71.2,30.17,ESE,112,7.0,17.0,91,0.00,,,-99.99,Weather View 32 v70,2013-01-25 01:50:00,
2013-01-24 21:10:00,74.0,71.2,30.17,ESE,112,8.0,13.0,91,0.00,,,-99.99,Weather View 32 v70,2013-01-25 02:10:00,
2013-01-24 21:58:00,72.0,62.0,30.30,ENE,67,23.0,29.0,71,0.00,,,-99.99,Weather View 32 v70,2013-01-25 02:58:00,